Time;durP1;ratioP1;P1;durP2;ratioP2;P2;SDS_P1;SDS_P2;PMS_P1;PMS_P2;Temp;Humidity;BMP_temperature;BMP_pressure;BME280_temperature;BME280_humidity;BME280_pressure;Samples;Min_cycle;Max_cycle;Signal;HPM_P1;HPM_P2
2024/03/16 00:00:58;;;;;;;2.50;1.60;;;12.30;1.00;;;;;;5019902;28;20377;-77
2024/03/16 00:03:28;;;;;;;13.67;1.57;;;12.30;1.00;;;;;;5020970;28;20426;-78
2024/03/16 00:06:10;;;;;;;3.60;1.80;;;12.30;1.00;;;;;;5016687;28;20422;-78
2024/03/16 00:08:40;;;;;;;2.53;1.43;;;12.30;1.00;;;;;;5028744;28;20396;-77
2024/03/16 00:11:16;;;;;;;7.40;1.40;;;12.30;1.00;;;;;;5033313;28;20763;-77
2024/03/16 00:13:42;;;;;;;8.43;1.20;;;12.10;1.00;;;;;;5008192;28;20423;-76
2024/03/16 00:16:08;;;;;;;5.87;1.43;;;12.10;1.00;;;;;;5028365;28;20525;-76
2024/03/16 00:18:36;;;;;;;4.70;1.67;;;12.10;1.00;;;;;;5025999;28;20181;-76
2024/03/16 00:21:04;;;;;;;1.17;1.07;;;12.10;1.00;;;;;;5026742;28;20176;-75
2024/03/16 00:23:30;;;;;;;3.80;1.43;;;12.20;1.00;;;;;;5034982;28;20457;-76
2024/03/16 00:26:04;;;;;;;3.27;1.27;;;12.10;1.00;;;;;;5009474;28;20423;-76
2024/03/16 00:28:40;;;;;;;6.40;1.50;;;12.10;1.00;;;;;;5025727;28;20508;-77
2024/03/16 00:31:11;;;;;;;4.50;1.17;;;12.10;1.00;;;;;;5027860;28;20817;-77
2024/03/16 00:33:47;;;;;;;2.00;1.10;;;12.10;1.00;;;;;;5022638;28;20394;-77
2024/03/16 00:36:34;;;;;;;5.87;1.50;;;12.20;1.00;;;;;;5036678;28;20507;-77
2024/03/16 00:39:00;;;;;;;3.00;1.30;;;12.20;1.00;;;;;;5035721;28;20378;-77
2024/03/16 00:41:28;;;;;;;6.20;1.30;;;12.20;1.00;;;;;;5029895;28;20423;-77
2024/03/16 00:43:57;;;;;;;4.10;1.17;;;12.20;1.00;;;;;;5029658;28;20189;-76
2024/03/16 00:46:23;;;;;;;3.80;1.10;;;12.20;1.00;;;;;;5021469;28;20489;-77
2024/03/16 00:48:48;;;;;;;4.93;2.17;;;12.30;1.00;;;;;;5023017;28;20833;-77
2024/03/16 00:51:34;;;;;;;2.40;1.30;;;12.50;1.00;;;;;;5016344;28;20169;-77
2024/03/16 00:54:11;;;;;;;1.73;1.20;;;12.20;1.00;;;;;;5026053;28;20181;-77
2024/03/16 00:56:40;;;;;;;2.77;1.33;;;12.10;1.00;;;;;;5023691;28;20431;-77
2024/03/16 00:59:10;;;;;;;5.43;1.87;;;12.10;1.00;;;;;;5020576;28;20430;-76
2024/03/16 01:01:40;;;;;;;2.17;1.40;;;12.10;1.00;;;;;;5021805;28;20934;-77
2024/03/16 01:04:11;;;;;;;2.07;1.70;;;12.20;1.00;;;;;;5023956;28;20517;-77
2024/03/16 01:06:37;;;;;;;3.77;1.10;;;12.10;1.00;;;;;;5006341;28;20387;-77
2024/03/16 01:09:11;;;;;;;2.50;1.27;;;12.10;1.00;;;;;;5016174;28;20743;-77
2024/03/16 01:11:40;;;;;;;2.90;1.00;;;12.10;1.00;;;;;;5021898;28;20408;-78
2024/03/16 01:14:13;;;;;;;3.70;1.37;;;12.00;1.00;;;;;;5016040;28;20419;-78
2024/03/16 01:16:39;;;;;;;1.03;0.93;;;12.00;1.00;;;;;;5027355;28;20448;-76
2024/03/16 01:19:11;;;;;;;3.17;1.20;;;12.00;1.00;;;;;;5018770;28;20431;-76
2024/03/16 01:21:52;;;;;;;3.73;1.33;;;12.00;1.00;;;;;;5017618;28;20416;-76
2024/03/16 01:24:18;;;;;;;7.53;1.73;;;11.90;1.00;;;;;;5029450;28;20422;-76
2024/03/16 01:26:47;;;;;;;3.80;1.40;;;11.90;1.00;;;;;;5005086;28;20394;-76
2024/03/16 01:29:16;;;;;;;2.13;1.30;;;11.80;1.00;;;;;;5022783;28;20184;-76
2024/03/16 01:31:58;;;;;;;3.03;1.50;;;11.90;1.00;;;;;;5016702;28;20986;-78
2024/03/16 01:34:41;;;;;;;1.27;1.17;;;11.90;1.00;;;;;;5015376;28;20385;-77
2024/03/16 01:37:17;;;;;;;1.87;1.20;;;11.80;1.00;;;;;;5023954;28;20806;-77
2024/03/16 01:39:49;;;;;;;1.50;1.40;;;11.90;1.00;;;;;;5026987;28;20426;-77
2024/03/16 01:42:17;;;;;;;7.80;1.67;;;11.90;1.00;;;;;;5016574;28;20879;-77
2024/03/16 01:45:06;;;;;;;2.47;1.50;;;11.90;1.00;;;;;;5015808;28;20411;-76
2024/03/16 01:47:35;;;;;;;4.10;1.73;;;11.90;1.00;;;;;;5027861;28;20432;-76
2024/03/16 01:50:05;;;;;;;5.53;1.70;;;12.00;1.00;;;;;;5008532;28;20514;-76
2024/03/16 01:52:32;;;;;;;2.60;1.47;;;11.90;1.00;;;;;;5021977;28;20456;-76
2024/03/16 01:54:58;;;;;;;4.23;1.33;;;11.90;1.00;;;;;;5024080;28;20410;-76
2024/03/16 01:57:24;;;;;;;3.90;1.60;;;11.90;1.00;;;;;;5003471;28;20397;-75
2024/03/16 02:00:01;;;;;;;4.83;1.47;;;11.80;1.00;;;;;;5017716;28;20419;-77
2024/03/16 02:02:58;;;;;;;2.80;1.33;;;11.80;1.00;;;;;;5015757;28;20196;-77
2024/03/16 02:05:36;;;;;;;1.93;1.40;;;11.80;1.00;;;;;;5030499;28;20381;-77
2024/03/16 02:08:04;;;;;;;1.37;1.27;;;11.80;1.00;;;;;;5017050;28;20393;-77
2024/03/16 02:13:58;;;;;;;3.40;1.30;;;11.80;1.00;;;;;;5021719;28;20399;-78
2024/03/16 02:16:47;;;;;;;4.87;1.60;;;11.80;1.00;;;;;;5021423;28;20424;-77
2024/03/16 02:19:35;;;;;;;2.67;1.27;;;11.80;1.00;;;;;;5024191;28;20532;-77
2024/03/16 02:22:10;;;;;;;2.10;1.23;;;11.90;1.00;;;;;;5030629;28;20916;-77
2024/03/16 02:24:41;;;;;;;3.83;1.70;;;11.90;1.00;;;;;;5006545;28;20727;-77
2024/03/16 02:27:16;;;;;;;4.90;1.17;;;11.80;1.00;;;;;;5014093;28;20843;-77
2024/03/16 02:30:16;;;;;;;3.80;1.40;;;11.90;1.00;;;;;;5021048;28;20431;-77
2024/03/16 02:32:42;;;;;;;1.27;1.17;;;11.90;1.00;;;;;;5027082;28;20386;-77
2024/03/16 02:35:23;;;;;;;1.47;1.20;;;11.80;1.00;;;;;;5022946;28;20426;-77
2024/03/16 02:37:48;;;;;;;4.10;1.47;;;11.80;1.00;;;;;;5018943;28;20214;-77
2024/03/16 02:40:52;;;;;;;3.00;1.57;;;11.80;1.00;;;;;;5014310;28;20738;-78
2024/03/16 02:43:34;;;;;;;1.67;1.30;;;11.80;1.00;;;;;;5027924;28;20188;-78
2024/03/16 02:46:05;;;;;;;3.37;1.10;;;11.70;1.00;;;;;;5024419;28;20892;-77
2024/03/16 02:49:04;;;;;;;4.47;1.60;;;11.80;1.00;;;;;;5018302;28;20375;-77
2024/03/16 02:51:41;;;;;;;1.80;1.17;;;11.70;1.00;;;;;;5015978;28;20442;-79
2024/03/16 02:54:10;;;;;;;3.10;1.57;;;11.70;1.00;;;;;;5032290;28;20418;-77
2024/03/16 02:56:36;;;;;;;2.40;1.30;;;11.70;1.00;;;;;;5026700;28;20485;-77
2024/03/16 02:59:03;;;;;;;5.40;1.80;;;11.60;1.00;;;;;;5013843;28;20462;-78
2024/03/16 03:01:28;;;;;;;1.50;1.40;;;11.60;1.00;;;;;;5015918;28;20185;-77
2024/03/16 03:03:59;;;;;;;1.80;1.70;;;11.60;1.00;;;;;;5020574;28;20455;-77
2024/03/16 03:06:46;;;;;;;2.77;1.50;;;11.50;1.00;;;;;;5029783;28;20172;-78
2024/03/16 03:09:37;;;;;;;3.57;1.43;;;11.50;1.00;;;;;;5020825;28;20382;-78
2024/03/16 03:12:46;;;;;;;2.40;1.47;;;11.50;1.00;;;;;;5013924;28;20396;-78
2024/03/16 03:15:20;;;;;;;8.53;1.73;;;11.60;1.00;;;;;;5022654;28;20411;-77
2024/03/16 03:17:52;;;;;;;2.33;1.40;;;11.60;1.00;;;;;;5032457;28;20441;-77
2024/03/16 03:20:29;;;;;;;2.30;1.93;;;11.50;1.00;;;;;;5023094;28;20985;-78
2024/03/16 03:22:59;;;;;;;2.47;1.47;;;11.40;1.00;;;;;;5014194;28;20515;-77
2024/03/16 03:25:24;;;;;;;3.80;1.70;;;11.40;1.00;;;;;;5003753;28;20834;-77
2024/03/16 03:27:53;;;;;;;2.90;1.60;;;11.40;1.00;;;;;;5021271;28;20420;-77
2024/03/16 03:30:23;;;;;;;3.53;1.60;;;11.40;1.00;;;;;;5028102;28;20180;-79
2024/03/16 03:32:58;;;;;;;5.50;1.80;;;11.20;1.00;;;;;;5020112;28;20881;-76
2024/03/16 03:35:29;;;;;;;2.73;1.90;;;11.10;1.00;;;;;;5019180;28;20508;-76
2024/03/16 03:37:54;;;;;;;3.07;1.60;;;11.10;1.00;;;;;;5016924;28;20394;-76
2024/03/16 03:40:23;;;;;;;4.50;2.07;;;11.10;1.00;;;;;;5017859;28;20390;-76
2024/03/16 03:43:04;;;;;;;2.77;1.60;;;11.00;1.00;;;;;;5024982;28;20204;-76
2024/03/16 03:50:59;;;;;;;2.30;1.30;;;11.00;3.60;;;;;;5021159;28;20389;-77
2024/03/16 03:53:35;;;;;;;2.20;1.60;;;10.90;1.50;;;;;;5015946;28;20415;-76
2024/03/16 03:56:05;;;;;;;2.93;1.70;;;10.90;4.30;;;;;;5020458;28;20410;-76
2024/03/16 03:58:47;;;;;;;6.10;2.00;;;10.80;1.00;;;;;;5013734;28;20421;-76
2024/03/16 04:01:17;;;;;;;4.40;2.10;;;10.90;3.70;;;;;;5018637;28;20420;-77
2024/03/16 04:03:47;;;;;;;2.17;1.60;;;10.80;4.40;;;;;;5029356;28;20528;-79
2024/03/16 04:06:16;;;;;;;2.50;2.13;;;10.80;6.10;;;;;;5019813;28;20890;-78
2024/03/16 04:09:16;;;;;;;7.93;1.90;;;10.80;8.30;;;;;;5022932;28;20387;-78
2024/03/16 04:11:47;;;;;;;2.03;1.53;;;10.70;11.30;;;;;;5014787;28;20903;-77
2024/03/16 04:14:17;;;;;;;5.60;2.50;;;10.70;12.90;;;;;;5018013;28;20390;-77
2024/03/16 04:16:48;;;;;;;2.63;1.80;;;10.70;13.10;;;;;;5027063;28;20435;-77
2024/03/16 04:19:17;;;;;;;3.37;1.90;;;10.60;16.00;;;;;;5019933;28;20390;-77
2024/03/16 04:21:49;;;;;;;5.03;2.07;;;10.70;19.00;;;;;;4999497;28;20506;-77
2024/03/16 04:24:16;;;;;;;4.00;2.30;;;10.70;17.80;;;;;;5017593;28;20451;-77
2024/03/16 04:26:59;;;;;;;6.40;2.00;;;10.70;18.20;;;;;;5003039;28;20415;-78
2024/03/16 04:29:25;;;;;;;2.33;2.13;;;10.80;16.60;;;;;;5016132;28;20494;-78
2024/03/16 04:32:10;;;;;;;4.03;1.47;;;10.80;17.10;;;;;;5017300;28;20431;-77
2024/03/16 04:34:47;;;;;;;2.40;2.20;;;10.80;12.90;;;;;;5026703;28;20172;-78
2024/03/16 04:37:46;;;;;;;3.47;2.40;;;10.80;14.80;;;;;;5023460;28;20513;-78
2024/03/16 04:40:17;;;;;;;3.43;1.93;;;10.80;13.30;;;;;;5021926;28;20430;-78
2024/03/16 04:42:59;;;;;;;7.23;2.20;;;10.90;11.30;;;;;;5017143;28;20825;-78
2024/03/16 04:45:29;;;;;;;4.43;2.13;;;11.00;9.30;;;;;;5030123;28;20485;-78
2024/03/16 04:47:59;;;;;;;4.70;2.27;;;10.90;11.60;;;;;;5024182;28;20880;-76
2024/03/16 04:50:29;;;;;;;5.30;2.10;;;10.90;10.20;;;;;;5024998;28;20934;-76
2024/03/16 04:52:59;;;;;;;5.50;2.33;;;10.80;10.10;;;;;;5020801;28;20817;-76
2024/03/16 04:55:35;;;;;;;1.90;1.67;;;10.70;14.20;;;;;;5023993;28;20469;-76
2024/03/16 04:58:07;;;;;;;5.63;2.67;;;10.80;11.60;;;;;;5022961;28;20411;-76
2024/03/16 05:00:35;;;;;;;6.93;2.97;;;10.80;15.10;;;;;;5026494;28;20473;-76
2024/03/16 05:03:05;;;;;;;7.83;2.20;;;10.90;15.60;;;;;;5026606;28;20462;-78
2024/03/16 05:05:30;;;;;;;2.53;2.33;;;10.90;16.50;;;;;;5016876;28;20502;-78
2024/03/16 05:07:56;;;;;;;3.20;2.20;;;10.90;14.60;;;;;;5017327;28;20491;-78
2024/03/16 05:10:22;;;;;;;4.37;2.10;;;10.90;12.90;;;;;;5025428;28;20248;-78
2024/03/16 05:13:05;;;;;;;4.10;1.87;;;10.80;11.40;;;;;;5019026;28;20200;-78
2024/03/16 05:15:52;;;;;;;2.30;2.00;;;10.90;6.40;;;;;;5028180;28;20230;-78
2024/03/16 05:18:47;;;;;;;4.20;1.93;;;10.80;7.10;;;;;;5025574;28;20501;-76
2024/03/16 05:21:13;;;;;;;3.63;2.20;;;10.80;5.70;;;;;;5029026;28;20443;-76
2024/03/16 05:23:47;;;;;;;5.37;1.90;;;10.80;8.20;;;;;;5024971;28;20512;-76
2024/03/16 05:26:17;;;;;;;3.20;1.70;;;10.70;10.20;;;;;;5023640;28;20846;-76
2024/03/16 05:28:47;;;;;;;2.73;2.00;;;10.80;10.20;;;;;;5034320;28;20897;-76
2024/03/16 05:31:13;;;;;;;5.07;2.20;;;10.70;9.30;;;;;;5024698;28;20410;-76
2024/03/16 05:33:39;;;;;;;2.33;2.13;;;10.60;8.40;;;;;;5019168;28;20416;-76
2024/03/16 05:36:17;;;;;;;2.33;2.13;;;10.60;8.40;;;;;;5026197;28;20431;-83
2024/03/16 05:38:47;;;;;;;4.00;2.00;;;10.40;11.00;;;;;;5005475;28;20438;-77
2024/03/16 05:41:17;;;;;;;2.10;2.00;;;10.40;13.90;;;;;;5015705;28;20938;-77
2024/03/16 05:43:44;;;;;;;6.43;1.90;;;10.40;16.60;;;;;;5021715;28;20482;-74
2024/03/16 05:46:11;;;;;;;3.67;2.27;;;10.30;16.60;;;;;;5019259;28;20431;-75
2024/03/16 05:48:37;;;;;;;3.30;2.17;;;10.30;18.90;;;;;;5021395;28;20420;-75
2024/03/16 05:51:03;;;;;;;4.53;2.17;;;10.40;18.00;;;;;;5015519;28;20408;-75
2024/03/16 05:53:35;;;;;;;1.50;1.40;;;10.30;16.60;;;;;;5023058;28;20222;-75
2024/03/16 05:56:17;;;;;;;1.60;1.50;;;10.40;12.20;;;;;;5032311;28;20522;-75
2024/03/16 05:58:47;;;;;;;2.10;1.90;;;10.40;14.30;;;;;;5014666;28;20427;-75
2024/03/16 06:01:17;;;;;;;5.43;1.87;;;10.40;11.70;;;;;;5021524;28;20414;-75
2024/03/16 06:03:42;;;;;;;1.70;1.60;;;10.40;12.30;;;;;;5016974;28;20816;-75
2024/03/16 06:06:08;;;;;;;3.10;2.20;;;10.30;13.20;;;;;;5015071;28;20397;-76
2024/03/16 06:08:36;;;;;;;2.90;1.90;;;10.40;13.80;;;;;;5001684;28;20176;-79
2024/03/16 06:11:11;;;;;;;1.83;1.70;;;10.50;10.20;;;;;;5021480;28;20173;-76
2024/03/16 06:13:47;;;;;;;2.20;1.60;;;10.60;12.90;;;;;;5027083;28;20905;-75
2024/03/16 06:16:13;;;;;;;1.70;1.60;;;10.50;13.40;;;;;;5015002;28;20442;-76
2024/03/16 06:22:18;;;;;;;2.13;1.50;;;10.70;10.70;;;;;;5027887;28;20230;-84
2024/03/16 06:24:47;;;;;;;2.33;1.80;;;10.90;7.70;;;;;;5015138;28;20401;-82
2024/03/16 06:27:21;;;;;;;2.30;1.70;;;11.10;5.00;;;;;;5028338;28;20386;-79
2024/03/16 06:29:52;;;;;;;2.80;1.50;;;11.20;1.00;;;;;;5029831;28;20496;-79
2024/03/16 06:32:37;;;;;;;4.10;2.00;;;11.20;1.00;;;;;;5013564;28;20405;-79
2024/03/16 06:35:14;;;;;;;7.03;1.60;;;11.20;1.00;;;;;;4995645;28;20422;-78
2024/03/16 06:37:40;;;;;;;1.60;1.50;;;11.10;1.00;;;;;;5015470;28;20503;-79
2024/03/16 06:40:28;;;;;;;6.10;2.90;;;11.10;1.00;;;;;;5006087;28;20564;-79
2024/03/16 06:43:14;;;;;;;4.80;1.73;;;11.20;1.00;;;;;;5027268;28;20200;-80
2024/03/16 06:46:18;;;;;;;1.53;1.43;;;11.20;1.00;;;;;;5027091;28;20402;-78
2024/03/16 06:48:50;;;;;;;3.23;1.97;;;11.20;1.00;;;;;;5020563;28;20893;-78
2024/03/16 06:51:20;;;;;;;1.93;1.60;;;11.30;1.00;;;;;;5017539;28;20402;-78
2024/03/16 06:53:49;;;;;;;1.60;1.50;;;11.30;1.00;;;;;;5018499;28;20807;-78
2024/03/16 06:56:15;;;;;;;2.53;2.00;;;11.40;1.00;;;;;;5023504;28;20413;-79
2024/03/16 06:58:41;;;;;;;1.83;1.73;;;11.40;1.00;;;;;;5016678;28;20414;-79
2024/03/16 07:01:12;;;;;;;2.67;1.53;;;;;;;;;;5014845;28;20757;-79
2024/03/16 07:03:47;;;;;;;3.73;2.10;;;11.80;1.00;;;;;;5025084;28;20929;-78
2024/03/16 07:06:29;;;;;;;4.60;2.20;;;11.80;1.00;;;;;;5020380;28;20493;-79
2024/03/16 07:09:03;;;;;;;2.03;1.83;;;11.90;1.00;;;;;;5015507;28;20776;-79
2024/03/16 07:11:29;;;;;;;2.00;1.80;;;12.00;1.00;;;;;;5020798;28;20749;-78
2024/03/16 07:17:17;;;;;;;2.63;1.77;;;12.00;1.00;;;;;;5014219;28;20381;-79
2024/03/16 07:19:54;;;;;;;5.03;1.70;;;12.10;1.00;;;;;;5021538;28;20412;-78
2024/03/16 07:22:23;;;;;;;3.13;1.63;;;12.10;1.00;;;;;;5022098;28;20765;-77
2024/03/16 07:24:59;;;;;;;5.10;2.60;;;12.10;1.00;;;;;;5026706;28;20412;-77
2024/03/16 07:27:29;;;;;;;1.70;1.60;;;12.00;1.00;;;;;;5017049;28;20408;-77
2024/03/16 07:29:56;;;;;;;6.10;2.00;;;12.00;1.00;;;;;;5017974;28;20391;-78
2024/03/16 07:32:22;;;;;;;1.90;1.80;;;12.30;1.00;;;;;;5020008;28;20411;-77
2024/03/16 07:34:53;;;;;;;5.17;1.47;;;12.30;1.00;;;;;;5009579;28;20934;-78
2024/03/16 07:37:29;;;;;;;1.80;1.70;;;12.30;1.00;;;;;;5026317;28;20400;-78
2024/03/16 07:39:59;;;;;;;2.13;1.80;;;12.50;1.00;;;;;;5020382;28;20390;-78
2024/03/16 07:42:29;;;;;;;4.10;1.90;;;12.50;1.00;;;;;;5020418;28;20455;-76
2024/03/16 07:44:55;;;;;;;2.03;1.80;;;12.50;1.00;;;;;;5019308;28;20413;-76
2024/03/16 07:47:22;;;;;;;3.80;2.03;;;12.40;1.00;;;;;;5021703;28;20479;-76
2024/03/16 07:49:47;;;;;;;2.30;1.87;;;12.40;1.00;;;;;;5023805;28;20419;-76
2024/03/16 07:52:52;;;;;;;3.17;1.83;;;12.60;1.00;;;;;;5027329;28;20486;-76
2024/03/16 07:55:18;;;;;;;2.23;1.67;;;12.60;1.00;;;;;;5019703;28;20827;-78
2024/03/16 07:57:53;;;;;;;1.83;1.67;;;12.80;1.00;;;;;;5026017;28;20390;-77
2024/03/16 08:00:23;;;;;;;1.83;1.73;;;12.80;1.00;;;;;;5020819;28;20187;-77
2024/03/16 08:03:05;;;;;;;3.53;1.70;;;12.80;1.00;;;;;;5017251;28;20452;-78
2024/03/16 08:05:41;;;;;;;3.37;1.63;;;12.90;1.00;;;;;;5020737;28;20386;-78
2024/03/16 08:08:28;;;;;;;1.90;1.80;;;12.80;1.00;;;;;;5021215;28;20411;-78
2024/03/16 08:11:05;;;;;;;5.87;1.33;;;13.00;1.00;;;;;;5018605;28;20382;-78
2024/03/16 08:13:41;;;;;;;2.13;1.60;;;13.00;1.00;;;;;;5036936;28;20890;-78
2024/03/16 08:16:17;;;;;;;4.20;1.60;;;13.10;1.00;;;;;;4999880;28;20536;-79
2024/03/16 08:18:53;;;;;;;2.70;1.23;;;13.10;1.00;;;;;;5017359;28;20738;-77
2024/03/16 08:21:23;;;;;;;2.70;1.63;;;13.00;1.00;;;;;;5027068;28;20839;-78
2024/03/16 08:23:48;;;;;;;2.60;1.60;;;13.00;1.00;;;;;;5022293;28;21277;-77
2024/03/16 08:26:14;;;;;;;1.77;1.40;;;13.00;1.00;;;;;;5026067;28;20493;-77
2024/03/16 08:28:41;;;;;;;6.10;1.60;;;13.20;1.00;;;;;;5016604;28;20309;-77
2024/03/16 08:31:28;;;;;;;1.60;1.50;;;13.30;1.00;;;;;;5019875;28;20404;-77
2024/03/16 08:34:05;;;;;;;1.63;1.53;;;13.30;1.00;;;;;;5030799;28;20426;-77
2024/03/16 08:36:30;;;;;;;3.43;1.73;;;13.40;1.00;;;;;;5024730;28;20536;-77
2024/03/16 08:38:56;;;;;;;1.73;1.63;;;;;;;;;;4997864;28;20831;-77
2024/03/16 08:41:36;;;;;;;3.80;1.57;;;13.20;1.00;;;;;;5024058;28;20185;-78
2024/03/16 08:44:17;;;;;;;1.70;1.60;;;13.30;1.00;;;;;;5011855;28;20524;-76
2024/03/16 08:46:59;;;;;;;2.23;1.50;;;13.30;1.00;;;;;;5022099;28;20930;-78
2024/03/16 08:49:35;;;;;;;4.50;1.60;;;13.70;1.00;;;;;;5011511;28;20446;-78
2024/03/16 08:52:47;;;;;;;1.50;1.40;;;13.70;1.00;;;;;;5032079;28;20426;-78
2024/03/16 08:55:13;;;;;;;3.00;1.70;;;13.90;1.00;;;;;;5022549;28;20779;-78
2024/03/16 08:57:41;;;;;;;1.00;1.00;;;13.60;1.00;;;;;;5002685;28;20410;-77
2024/03/16 09:00:29;;;;;;;1.03;1.00;;;14.00;1.00;;;;;;5017322;28;20387;-77
2024/03/16 09:03:05;;;;;;;1.90;1.07;;;14.00;1.00;;;;;;5019733;28;20465;-77
2024/03/16 09:05:30;;;;;;;1.10;1.00;;;14.10;1.00;;;;;;5015749;28;20890;-78
2024/03/16 09:07:59;;;;;;;1.83;0.90;;;14.20;1.00;;;;;;5018346;28;20407;-77
2024/03/16 09:10:25;;;;;;;0.83;0.83;;;14.30;1.00;;;;;;5017321;28;20177;-78
2024/03/16 09:13:05;;;;;;;1.57;1.10;;;14.30;1.00;;;;;;5018187;28;20451;-77
2024/03/16 09:15:35;;;;;;;1.30;1.20;;;14.30;1.00;;;;;;5003263;28;20636;-77
2024/03/16 09:18:17;;;;;;;2.30;1.30;;;14.20;1.00;;;;;;5020897;28;20927;-77
2024/03/16 09:20:47;;;;;;;0.80;0.80;;;14.20;1.00;;;;;;5021902;28;20818;-77
2024/03/16 09:23:13;;;;;;;0.80;0.73;;;;;;;;;;5019959;28;20928;-77
2024/03/16 09:25:59;;;;;;;0.80;0.60;;;14.30;1.00;;;;;;5020751;28;20498;-77
2024/03/16 09:28:25;;;;;;;0.83;0.80;;;14.20;1.00;;;;;;5024964;28;20461;-77
2024/03/16 09:30:51;;;;;;;3.13;0.70;;;14.30;1.00;;;;;;5008156;28;20429;-78
2024/03/16 09:33:16;;;;;;;0.50;0.50;;;14.60;1.00;;;;;;5020638;28;20176;-77
2024/03/16 09:35:42;;;;;;;0.57;0.50;;;14.50;1.00;;;;;;5025204;28;20177;-77
2024/03/16 09:38:09;;;;;;;1.10;0.60;;;14.50;1.00;;;;;;5028333;28;22217;-77
2024/03/16 09:40:39;;;;;;;1.90;0.90;;;14.60;1.00;;;;;;5021854;28;20211;-76
2024/03/16 09:43:09;;;;;;;4.50;0.63;;;14.90;1.00;;;;;;5019185;28;20525;-76
2024/03/16 09:45:36;;;;;;;0.40;0.40;;;15.10;1.00;;;;;;5019419;28;20523;-75
2024/03/16 09:48:06;;;;;;;0.53;0.50;;;15.20;1.00;;;;;;5017477;28;20417;-74
2024/03/16 09:50:33;;;;;;;0.90;0.60;;;15.20;1.00;;;;;;5000548;28;20482;-77
2024/03/16 09:53:00;;;;;;;0.60;0.50;;;15.20;1.00;;;;;;5020514;28;20439;-79
2024/03/16 09:55:27;;;;;;;4.37;0.57;;;15.20;1.00;;;;;;5016576;28;20496;-76
2024/03/16 09:57:53;;;;;;;0.60;0.60;;;15.20;1.00;;;;;;5016686;28;20424;-77
2024/03/16 10:00:24;;;;;;;1.10;0.70;;;15.30;1.00;;;;;;5024306;28;20816;-77
2024/03/16 10:02:51;;;;;;;0.70;0.53;;;15.40;1.00;;;;;;5014813;28;20252;-77
2024/03/16 10:05:17;;;;;;;0.50;0.50;;;15.40;1.00;;;;;;5031864;28;20396;-77
2024/03/16 10:07:59;;;;;;;0.67;0.60;;;15.20;1.00;;;;;;5034200;28;20400;-76
2024/03/16 10:10:42;;;;;;;0.77;0.50;;;15.10;1.00;;;;;;5024773;28;20404;-76
2024/03/16 10:13:11;;;;;;;0.70;0.50;;;14.90;1.00;;;;;;5014817;28;20473;-76
2024/03/16 10:15:42;;;;;;;1.67;0.63;;;15.00;1.00;;;;;;5015953;28;20480;-77
2024/03/16 10:18:14;;;;;;;0.80;0.40;;;14.90;1.00;;;;;;5025273;28;20421;-76
2024/03/16 10:20:43;;;;;;;1.00;0.50;;;14.80;1.00;;;;;;5026616;28;20411;-76
2024/03/16 10:23:29;;;;;;;3.33;0.60;;;14.50;1.00;;;;;;5014697;28;20763;-77
2024/03/16 10:26:02;;;;;;;1.77;0.60;;;14.20;1.00;;;;;;5009148;28;20390;-77
2024/03/16 10:28:35;;;;;;;3.50;1.37;;;13.50;1.00;;;;;;5024652;28;20392;-77
2024/03/16 10:31:11;;;;;;;121.63;42.87;;;13.10;1.00;;;;;;5015673;28;20946;-78
2024/03/16 10:34:01;;;;;;;791.83;298.37;;;12.90;1.00;;;;;;5018589;28;20933;-78
2024/03/16 10:36:29;;;;;;;604.97;197.90;;;12.80;1.00;;;;;;5015040;28;20758;-76
2024/03/16 10:39:07;;;;;;;709.40;237.80;;;12.80;1.00;;;;;;5020705;28;20502;-75
2024/03/16 10:41:36;;;;;;;58.97;33.53;;;12.90;1.00;;;;;;5015837;28;20934;-74
2024/03/16 10:44:08;;;;;;;883.40;353.08;;;12.70;1.00;;;;;;5020709;28;20458;-75
2024/03/16 10:46:35;;;;;;;802.55;301.98;;;12.80;1.00;;;;;;5017106;28;20187;-74
2024/03/16 10:49:01;;;;;;;707.53;307.83;;;12.90;1.00;;;;;;5019573;28;20176;-73
2024/03/16 10:51:27;;;;;;;2.03;1.10;;;12.90;1.00;;;;;;5021367;28;20493;-75
2024/03/16 10:53:53;;;;;;;187.77;68.57;;;12.90;1.00;;;;;;5018973;28;20510;-75
2024/03/16 10:56:25;;;;;;;2.00;1.00;;;13.00;1.00;;;;;;5018963;28;20671;-76
2024/03/16 10:58:59;;;;;;;1.80;1.20;;;13.10;1.00;;;;;;5013424;28;20411;-75
2024/03/16 11:01:25;;;;;;;5.60;1.70;;;13.30;1.00;;;;;;5022344;28;20455;-75
2024/03/16 11:03:55;;;;;;;1.63;1.00;;;13.40;1.00;;;;;;5009115;28;20432;-76
2024/03/16 11:06:24;;;;;;;1.97;1.27;;;13.60;1.00;;;;;;5018680;28;20394;-76
2024/03/16 11:09:22;;;;;;;1.93;1.10;;;13.80;1.00;;;;;;5021710;28;20435;-77
2024/03/16 11:11:50;;;;;;;2.50;1.60;;;13.90;1.00;;;;;;5017265;28;20426;-76
2024/03/16 11:14:17;;;;;;;76.37;44.27;;;13.60;1.00;;;;;;5001012;28;20467;-75
2024/03/16 11:16:47;;;;;;;7.00;1.87;;;13.70;1.00;;;;;;5017002;28;20399;-75
2024/03/16 11:19:20;;;;;;;1.70;1.47;;;13.80;1.00;;;;;;5005739;28;20436;-77
2024/03/16 11:21:53;;;;;;;1.27;1.13;;;13.80;1.00;;;;;;5017793;28;20466;-76
2024/03/16 11:24:20;;;;;;;4.90;1.83;;;14.40;1.00;;;;;;5015778;28;21455;-75
2024/03/16 11:26:49;;;;;;;3.50;1.77;;;14.80;1.00;;;;;;5019041;28;20398;-75
2024/03/16 11:29:18;;;;;;;1.10;1.07;;;14.80;1.00;;;;;;5022500;28;20427;-76
2024/03/16 11:31:53;;;;;;;4.67;1.70;;;14.80;1.00;;;;;;5018206;28;20438;-75
2024/03/16 11:34:20;;;;;;;4.57;1.43;;;14.90;1.00;;;;;;5015451;28;20432;-75
2024/03/16 11:36:50;;;;;;;0.83;0.83;;;14.90;1.00;;;;;;5016130;28;20406;-76
2024/03/16 11:39:24;;;;;;;1.67;1.10;;;15.00;1.00;;;;;;5021593;28;20440;-76
2024/03/16 11:41:53;;;;;;;1.43;1.20;;;15.20;1.00;;;;;;5019751;28;20464;-76
2024/03/16 11:44:23;;;;;;;1.40;1.30;;;15.30;1.00;;;;;;5015223;28;20442;-76
2024/03/16 11:46:53;;;;;;;1.53;1.40;;;15.60;1.00;;;;;;5018936;28;20396;-76
2024/03/16 11:49:41;;;;;;;7.80;1.40;;;15.80;1.00;;;;;;5017767;28;20455;-76
2024/03/16 11:52:08;;;;;;;3.87;1.50;;;15.50;1.00;;;;;;5017740;28;20431;-76
2024/03/16 11:54:33;;;;;;;2.27;1.33;;;15.20;1.00;;;;;;5020620;28;20446;-77
2024/03/16 11:57:07;;;;;;;9.10;2.13;;;15.00;1.00;;;;;;5009050;28;20480;-75
2024/03/16 11:59:41;;;;;;;4.37;1.43;;;15.00;1.00;;;;;;5018052;28;20185;-76
2024/03/16 12:02:08;;;;;;;7.43;2.03;;;14.90;1.00;;;;;;5027307;28;20494;-76
2024/03/16 12:04:34;;;;;;;8.00;2.33;;;14.80;1.00;;;;;;5016484;28;20423;-76
2024/03/16 12:07:48;;;;;;;1.63;1.00;;;14.90;1.00;;;;;;5013831;28;20405;-78
2024/03/16 12:10:47;;;;;;;3.70;1.70;;;15.10;1.00;;;;;;5021880;28;20514;-76
2024/03/16 12:13:23;;;;;;;1.10;1.00;;;15.10;1.00;;;;;;5016188;28;20445;-78
2024/03/16 12:15:53;;;;;;;2.97;1.10;;;15.10;1.00;;;;;;5014774;28;20939;-77
2024/03/16 12:18:31;;;;;;;1.37;1.27;;;15.10;1.00;;;;;;5015562;28;20411;-76
2024/03/16 12:21:09;;;;;;;1.30;1.20;;;15.20;1.00;;;;;;5018081;28;20501;-77
2024/03/16 12:23:39;;;;;;;1.13;1.00;;;15.20;1.00;;;;;;5003232;28;20677;-77
2024/03/16 12:26:09;;;;;;;1.30;1.20;;;15.20;1.00;;;;;;5016294;28;20482;-77
2024/03/16 12:28:39;;;;;;;9.50;1.93;;;15.00;1.00;;;;;;5002241;28;20406;-77
2024/03/16 12:31:14;;;;;;;1.47;0.90;;;15.00;1.00;;;;;;4999247;28;20439;-78
2024/03/16 12:33:39;;;;;;;1.10;0.80;;;15.00;1.00;;;;;;5019518;28;20513;-76
2024/03/16 12:36:07;;;;;;;2.53;1.70;;;15.00;1.00;;;;;;4997563;28;20406;-76
2024/03/16 12:38:35;;;;;;;2.93;1.20;;;15.00;1.00;;;;;;5013501;28;20235;-76
2024/03/16 12:41:06;;;;;;;2.67;1.47;;;15.20;1.00;;;;;;4993758;28;20427;-77
2024/03/16 12:43:33;;;;;;;7.60;2.30;;;15.00;1.00;;;;;;4998059;28;20462;-76
2024/03/16 12:45:59;;;;;;;3.70;1.73;;;;;;;;;;5010117;28;20427;-76
2024/03/16 12:48:25;;;;;;;6.27;1.93;;;14.90;1.00;;;;;;5012914;28;20518;-76
2024/03/16 12:50:53;;;;;;;3.07;0.90;;;14.90;1.00;;;;;;5011903;28;20494;-76
2024/03/16 12:53:19;;;;;;;1.07;1.00;;;14.60;1.00;;;;;;5020399;28;20436;-76
2024/03/16 12:55:51;;;;;;;1.40;1.30;;;;;;;;;;5021093;28;20454;-78
2024/03/16 12:58:23;;;;;;;3.73;1.00;;;14.60;1.00;;;;;;5020633;28;20177;-76
2024/03/16 13:01:06;;;;;;;3.13;0.80;;;14.50;1.00;;;;;;5012284;28;20944;-76
2024/03/16 13:03:32;;;;;;;0.80;0.80;;;14.50;1.00;;;;;;5031657;28;20433;-76
2024/03/16 13:05:59;;;;;;;1.90;1.17;;;14.60;1.00;;;;;;5022828;28;20456;-76
2024/03/16 13:08:29;;;;;;;3.97;1.27;;;14.40;1.00;;;;;;5019767;28;20176;-79
2024/03/16 13:11:00;;;;;;;13.80;2.50;;;;;;;;;;5029535;28;20980;-75
2024/03/16 13:13:35;;;;;;;1.70;0.93;;;14.50;1.00;;;;;;5020643;28;20410;-74
2024/03/16 13:16:01;;;;;;;3.33;1.13;;;14.50;1.00;;;;;;5018115;28;20973;-75
2024/03/16 13:18:27;;;;;;;7.33;1.00;;;14.90;1.00;;;;;;5026996;28;20403;-74
2024/03/16 13:21:13;;;;;;;1.33;1.10;;;;;;;;;;5026269;28;20387;-76
2024/03/16 13:23:47;;;;;;;2.40;1.20;;;15.60;1.00;;;;;;5019179;28;20534;-77
2024/03/16 13:26:18;;;;;;;2.03;0.70;;;15.50;1.00;;;;;;5022389;28;20410;-76
2024/03/16 13:29:00;;;;;;;3.47;1.33;;;15.60;1.00;;;;;;5014006;28;20412;-76
2024/03/16 13:31:47;;;;;;;2.50;0.90;;;15.40;1.00;;;;;;5044243;28;20414;-76
2024/03/16 13:34:13;;;;;;;1.53;0.87;;;15.60;1.00;;;;;;5051238;28;20404;-76
2024/03/16 13:36:41;;;;;;;2.23;0.90;;;15.60;1.00;;;;;;5043092;28;20414;-76
2024/03/16 13:39:07;;;;;;;0.93;0.70;;;15.70;1.00;;;;;;5055250;28;20189;-75
2024/03/16 13:41:48;;;;;;;3.20;1.00;;;15.80;1.00;;;;;;5029834;28;20481;-76